Time;durP1;ratioP1;P1;durP2;ratioP2;P2;SDS_P1;SDS_P2;PMS_P1;PMS_P2;Temp;Humidity;BMP_temperature;BMP_pressure;BME280_temperature;BME280_humidity;BME280_pressure;Samples;Min_cycle;Max_cycle;Signal;HPM_P1;HPM_P2
2021/05/22 00:00:21;;;;;;;6.20;2.60;;;;;;;10.49;100.00;100512.88;5032460;28;20022;-69
2021/05/22 00:02:46;;;;;;;4.18;2.65;;;;;;;10.37;100.00;100519.91;5032003;28;20033;-69
2021/05/22 00:05:12;;;;;;;5.00;2.60;;;;;;;10.61;100.00;100552.06;5031942;28;20022;-69
2021/05/22 00:07:38;;;;;;;5.47;2.40;;;;;;;10.53;100.00;100517.78;5031945;28;20459;-69
2021/05/22 00:10:10;;;;;;;5.80;2.47;;;;;;;10.67;100.00;100544.72;5032169;28;20033;-69
2021/05/22 00:12:38;;;;;;;8.65;2.13;;;;;;;10.78;100.00;100548.16;5032427;28;20103;-69
2021/05/22 00:15:06;;;;;;;8.48;2.17;;;;;;;10.67;100.00;100537.69;5031935;28;20095;-69
2021/05/22 00:17:32;;;;;;;4.50;2.60;;;;;;;10.65;100.00;100552.69;5031911;28;20139;-69
2021/05/22 00:19:58;;;;;;;7.00;2.10;;;;;;;10.69;100.00;100548.84;5031670;28;20060;-69
2021/05/22 00:22:23;;;;;;;10.07;2.60;;;;;;;10.83;100.00;100558.25;5031720;28;20046;-69
2021/05/22 00:24:49;;;;;;;8.23;2.42;;;;;;;10.86;100.00;100539.66;5031988;28;20036;-69
2021/05/22 00:27:14;;;;;;;6.22;1.95;;;;;;;10.83;100.00;100532.91;5030693;28;20025;-69
2021/05/22 00:29:39;;;;;;;4.78;2.10;;;;;;;10.97;100.00;100565.91;5032191;28;20040;-69
2021/05/22 00:32:05;;;;;;;4.18;2.00;;;;;;;10.62;100.00;100531.94;5031739;28;20030;-69
2021/05/22 00:34:31;;;;;;;6.68;2.40;;;;;;;10.70;100.00;100575.91;5031533;28;20480;-69
2021/05/22 00:36:56;;;;;;;8.52;2.67;;;;;;;10.42;100.00;100541.34;5032138;28;20370;-69
2021/05/22 00:39:21;;;;;;;4.90;2.40;;;;;;;10.54;100.00;100545.66;5031740;28;20072;-69
2021/05/22 00:41:47;;;;;;;6.18;2.80;;;;;;;10.55;100.00;100536.81;5032054;28;20029;-69
2021/05/22 00:44:12;;;;;;;4.97;2.47;;;;;;;10.38;100.00;100540.75;5031716;28;20021;-69
2021/05/22 00:46:38;;;;;;;14.75;3.03;;;;;;;10.42;100.00;100569.34;5031947;28;20029;-69
2021/05/22 00:49:03;;;;;;;7.32;2.22;;;;;;;10.39;100.00;100537.19;5035191;28;20026;-69
2021/05/22 00:51:29;;;;;;;5.10;2.45;;;;;;;10.58;100.00;100568.03;5034922;28;20029;-69
2021/05/22 00:53:55;;;;;;;6.22;2.95;;;;;;;10.49;100.00;100542.53;5035104;28;20599;-69
2021/05/22 00:56:20;;;;;;;6.28;2.60;;;;;;;10.55;100.00;100542.06;5035156;28;20032;-69
2021/05/22 00:58:46;;;;;;;4.35;2.28;;;;;;;10.66;100.00;100572.69;5035384;28;20067;-69
2021/05/22 01:01:11;;;;;;;7.22;2.75;;;;;;;10.47;100.00;100541.00;5034953;28;20029;-69
2021/05/22 01:03:51;;;;;;;4.43;2.08;;;;;;;10.58;100.00;100581.13;5034801;28;20028;-69
2021/05/22 01:06:35;;;;;;;4.60;2.45;;;;;;;10.40;100.00;100567.66;5034910;28;20030;-69
2021/05/22 01:09:27;;;;;;;7.60;2.60;;;;;;;10.12;100.00;100558.44;5035270;28;20501;-69
2021/05/22 01:12:00;;;;;;;8.57;2.95;;;;;;;9.97;100.00;100566.59;5033603;28;20089;-69
2021/05/22 01:14:36;;;;;;;5.38;2.60;;;;;;;9.81;100.00;100557.25;5035282;28;20092;-69
2021/05/22 01:17:03;;;;;;;6.38;2.60;;;;;;;9.67;100.00;100560.88;5035053;28;20108;-69
2021/05/22 01:19:44;;;;;;;7.95;3.20;;;;;;;9.80;100.00;100567.84;5034613;28;20042;-69
2021/05/22 01:22:12;;;;;;;5.45;2.25;;;;;;;9.88;100.00;100547.16;5033051;28;20039;-69
2021/05/22 01:25:08;;;;;;;5.47;2.20;;;;;;;10.04;100.00;100552.09;5034793;28;20091;-69
2021/05/22 01:27:35;;;;;;;4.38;2.05;;;;;;;10.10;100.00;100560.31;5026639;28;20119;-69
2021/05/22 01:30:02;;;;;;;4.28;2.10;;;;;;;9.82;100.00;100531.91;5034481;28;20479;-69
2021/05/22 01:32:28;;;;;;;5.13;2.65;;;;;;;9.89;100.00;100564.56;5034652;28;20056;-69
2021/05/22 01:34:55;;;;;;;7.68;2.15;;;;;;;9.56;100.00;100545.13;5034247;28;20477;-69
2021/05/22 01:37:21;;;;;;;5.55;2.25;;;;;;;9.43;100.00;100566.13;5034512;28;20068;-69
2021/05/22 01:39:46;;;;;;;7.28;2.30;;;;;;;9.25;100.00;100548.28;5034255;28;20025;-69
2021/05/22 01:42:12;;;;;;;4.15;2.33;;;;;;;9.49;100.00;100567.47;5034193;28;20091;-69
2021/05/22 01:44:40;;;;;;;7.75;2.72;;;;;;;9.42;100.00;100579.31;5034132;28;20021;-69
2021/05/22 01:47:06;;;;;;;5.45;2.35;;;;;;;9.27;100.00;100542.00;5034052;28;20025;-69
2021/05/22 01:49:33;;;;;;;10.38;2.50;;;;;;;9.52;100.00;100561.16;5034061;28;20053;-69
2021/05/22 01:52:01;;;;;;;7.18;2.55;;;;;;;9.29;100.00;100560.22;5032806;28;20037;-69
2021/05/22 01:54:27;;;;;;;7.85;2.50;;;;;;;9.12;100.00;100559.66;5033186;28;20024;-69
2021/05/22 01:56:54;;;;;;;7.20;3.38;;;;;;;9.19;100.00;100560.88;5032688;28;20094;-69
2021/05/22 01:59:19;;;;;;;9.35;3.05;;;;;;;9.12;100.00;100532.66;5034123;28;20053;-69
2021/05/22 02:01:50;;;;;;;5.35;2.10;;;;;;;9.17;100.00;100554.06;5033716;28;20057;-69
2021/05/22 02:04:19;;;;;;;4.20;2.33;;;;;;;8.86;100.00;100524.06;5033752;28;20488;-69
2021/05/22 02:06:47;;;;;;;3.97;2.20;;;;;;;8.98;100.00;100557.19;5033492;28;20087;-69
2021/05/22 02:09:15;;;;;;;5.00;2.15;;;;;;;9.07;100.00;100560.91;5032312;28;20075;-69
2021/05/22 02:11:42;;;;;;;3.67;1.90;;;;;;;9.04;100.00;100527.97;5032354;28;20029;-69
2021/05/22 02:14:10;;;;;;;6.50;2.17;;;;;;;9.22;100.00;100544.97;5033613;28;20029;-69
2021/05/22 02:16:42;;;;;;;4.00;2.50;;;;;;;9.29;100.00;100562.84;5033689;28;20508;-69
2021/05/22 02:19:10;;;;;;;4.50;1.85;;;;;;;9.20;100.00;100549.47;5033822;28;20152;-69
2021/05/22 02:21:38;;;;;;;6.13;2.28;;;;;;;9.06;100.00;100541.78;5033550;28;20029;-69
2021/05/22 02:24:04;;;;;;;3.67;2.10;;;;;;;9.01;100.00;100559.59;5033548;28;20144;-69
2021/05/22 02:26:30;;;;;;;10.77;2.30;;;;;;;8.68;100.00;100513.97;5033443;28;20045;-69
2021/05/22 02:28:58;;;;;;;5.05;2.33;;;;;;;8.51;100.00;100504.69;5031957;28;20408;-69
2021/05/22 02:31:28;;;;;;;7.25;2.60;;;;;;;8.80;100.00;100540.16;5032020;28;20559;-69
2021/05/22 02:34:00;;;;;;;7.63;2.33;;;;;;;8.87;100.00;100557.09;5032376;28;20029;-69
2021/05/22 02:36:26;;;;;;;3.55;2.05;;;;;;;8.81;100.00;100529.63;5033299;28;20029;-69
2021/05/22 02:38:53;;;;;;;5.40;2.22;;;;;;;8.83;100.00;100534.72;5033214;28;20047;-69
2021/05/22 02:41:21;;;;;;;6.32;2.20;;;;;;;8.90;100.00;100538.56;5033090;28;20083;-69
2021/05/22 02:43:51;;;;;;;5.28;1.90;;;;;;;8.85;100.00;100579.91;5032984;28;20037;-69
2021/05/22 02:46:20;;;;;;;5.82;1.75;;;;;;;8.48;100.00;100548.47;5033300;28;20025;-69
2021/05/22 02:48:47;;;;;;;8.77;2.40;;;;;;;8.56;100.00;100585.34;5033081;28;20091;-69
2021/05/22 02:51:16;;;;;;;8.18;2.30;;;;;;;8.46;100.00;100545.94;5033238;28;20463;-69
2021/05/22 02:53:44;;;;;;;3.70;2.13;;;;;;;8.75;100.00;100579.69;5032880;28;20036;-69
2021/05/22 02:56:12;;;;;;;5.93;1.92;;;;;;;8.93;100.00;100588.03;5031577;28;20032;-69
2021/05/22 02:58:41;;;;;;;8.75;2.95;;;;;;;8.93;100.00;100588.03;5032869;28;20025;-69
2021/05/22 03:01:07;;;;;;;7.13;3.70;;;;;;;8.89;100.00;100605.69;5033042;28;20021;-69
2021/05/22 03:03:34;;;;;;;6.57;4.60;;;;;;;8.85;100.00;100609.47;5032695;28;20033;-69
2021/05/22 03:06:01;;;;;;;12.02;5.15;;;;;;;8.51;100.00;100549.09;5032895;28;20034;-69
2021/05/22 03:08:27;;;;;;;7.10;2.92;;;;;;;8.89;100.00;100613.53;5031116;28;20044;-69
2021/05/22 03:10:57;;;;;;;7.18;3.13;;;;;;;8.79;100.00;100594.22;5031605;28;20394;-69
2021/05/22 03:13:23;;;;;;;4.67;2.43;;;;;;;8.79;100.00;100572.47;5032635;28;20033;-69
2021/05/22 03:15:49;;;;;;;6.90;2.42;;;;;;;8.84;100.00;100575.59;5032455;28;20106;-69
2021/05/22 03:18:14;;;;;;;6.10;3.00;;;;;;;9.10;100.00;100608.59;5032810;28;20560;-69
2021/05/22 03:20:40;;;;;;;3.30;2.42;;;;;;;9.17;100.00;100607.22;5032463;28;20029;-69
2021/05/22 03:23:06;;;;;;;5.00;2.28;;;;;;;9.23;100.00;100617.25;5032279;28;20468;-69
2021/05/22 03:25:31;;;;;;;4.90;2.70;;;;;;;9.11;100.00;100573.69;5032697;28;20409;-69
2021/05/22 03:27:57;;;;;;;6.38;3.22;;;;;;;9.40;100.00;100610.81;5032728;28;20030;-69
2021/05/22 03:30:25;;;;;;;7.90;4.00;;;;;;;9.45;100.00;100618.34;5032412;28;20026;-69
2021/05/22 03:32:51;;;;;;;5.13;3.38;;;;;;;9.63;100.00;100627.47;5032354;28;20048;-69
2021/05/22 03:35:16;;;;;;;6.38;4.05;;;;;;;9.84;100.00;100624.25;5031080;28;20489;-69
2021/05/22 03:37:42;;;;;;;6.45;4.10;;;;;;;9.81;100.00;100588.66;5032341;28;20037;-69
2021/05/22 03:40:10;;;;;;;7.25;4.68;;;;;;;10.25;100.00;100628.22;5032705;28;20029;-69
2021/05/22 03:42:35;;;;;;;5.40;3.50;;;;;;;10.29;100.00;100598.25;5031063;28;20095;-69
2021/05/22 03:45:01;;;;;;;6.68;3.80;;;;;;;10.56;100.00;100605.78;5032443;28;20030;-69
2021/05/22 03:47:26;;;;;;;5.30;3.33;;;;;;;10.82;100.00;100625.59;5032102;28;20025;-69
2021/05/22 03:49:51;;;;;;;4.80;3.13;;;;;;;10.85;100.00;100606.19;5032464;28;20060;-70
2021/05/22 03:52:17;;;;;;;4.43;2.80;;;;;;;11.01;100.00;100609.28;5032118;28;20029;-70
2021/05/22 03:54:43;;;;;;;4.57;2.97;;;;;;;11.22;100.00;100613.78;5031950;28;20029;-70
2021/05/22 03:57:09;;;;;;;5.18;2.85;;;;;;;11.46;100.00;100617.09;5032470;28;20091;-69
2021/05/22 03:59:34;;;;;;;6.40;2.97;;;;;;;11.62;100.00;100611.44;5032168;28;20132;-69
2021/05/22 04:02:00;;;;;;;5.70;2.95;;;;;;;11.92;100.00;100631.78;5032085;28;20032;-69
2021/05/22 04:04:25;;;;;;;4.18;2.97;;;;;;;12.05;100.00;100614.06;5032192;28;20026;-69
2021/05/22 04:06:50;;;;;;;6.18;2.65;;;;;;;12.24;100.00;100602.84;5032102;28;20482;-70
2021/05/22 04:09:16;;;;;;;6.78;2.78;;;;;;;12.63;100.00;100641.69;5032468;28;20477;-70
2021/05/22 04:11:41;;;;;;;6.10;2.90;;;;;;;12.71;100.00;100618.19;5032203;28;20107;-69
2021/05/22 04:14:07;;;;;;;4.75;2.67;;;;;;;12.89;100.00;100616.66;5031833;28;20029;-69
2021/05/22 04:16:32;;;;;;;10.23;3.13;;;;;;;13.04;100.00;100613.66;5031860;28;20039;-69
2021/05/22 04:18:59;;;;;;;6.63;2.63;;;;;;;13.41;100.00;100634.97;5031960;28;20049;-67
2021/05/22 04:21:25;;;;;;;7.15;2.92;;;;;;;13.59;100.00;100643.03;5031723;28;20104;-69
2021/05/22 04:23:50;;;;;;;10.70;3.08;;;;;;;13.46;100.00;100612.56;5035197;28;20152;-69
2021/05/22 04:26:15;;;;;;;8.23;3.20;;;;;;;13.92;100.00;100632.13;5035450;28;20044;-69
2021/05/22 04:28:41;;;;;;;5.28;3.40;;;;;;;14.04;100.00;100597.72;5035734;28;20094;-69
2021/05/22 04:31:06;;;;;;;7.75;4.05;;;;;;;14.50;100.00;100633.06;5035552;28;20024;-69
2021/05/22 04:33:32;;;;;;;5.38;3.65;;;;;;;14.51;100.00;100608.38;5035443;28;20031;-69
2021/05/22 04:35:57;;;;;;;6.05;3.60;;;;;;;14.86;100.00;100619.09;5035342;28;20040;-69
2021/05/22 04:38:23;;;;;;;5.85;3.63;;;;;;;15.05;100.00;100620.84;5035418;28;20087;-69
2021/05/22 04:40:48;;;;;;;10.10;4.25;;;;;;;15.41;100.00;100639.41;5035399;28;20025;-69
2021/05/22 04:43:15;;;;;;;8.00;4.10;;;;;;;15.70;100.00;100633.16;5035441;28;20052;-70
2021/05/22 04:45:40;;;;;;;7.10;4.32;;;;;;;15.70;100.00;100606.72;5035467;28;20412;-69
2021/05/22 04:48:06;;;;;;;6.25;3.72;;;;;;;15.90;100.00;100634.66;5035623;28;20026;-69
2021/05/22 04:50:32;;;;;;;8.18;3.25;;;;;;;15.81;100.00;100617.06;5035124;28;20142;-70
2021/05/22 04:52:59;;;;;;;4.60;3.53;;;;;;;15.88;100.00;100643.72;5026349;28;20029;-70
2021/05/22 04:55:25;;;;;;;8.07;3.63;;;;;;;15.70;100.00;100618.13;5018806;28;20156;-70
2021/05/22 04:57:51;;;;;;;5.72;3.83;;;;;;;15.41;100.00;100601.59;5025529;28;20489;-70
2021/05/22 05:00:17;;;;;;;4.72;3.90;;;;;;;15.68;100.00;100656.22;5014844;28;20040;-70
2021/05/22 05:02:42;;;;;;;4.97;3.30;;;;;;;15.80;100.00;100626.81;5024703;28;20082;-70
2021/05/22 05:05:08;;;;;;;4.72;3.58;;;;;;;15.68;100.00;100651.78;5019797;28;20492;-71
2021/05/22 05:07:34;;;;;;;5.60;3.75;;;;;;;15.84;100.00;100660.88;5019661;28;20033;-71
2021/05/22 05:10:00;;;;;;;9.18;3.70;;;;;;;15.80;100.00;100628.63;5024005;28;20039;-71
2021/05/22 05:12:25;;;;;;;7.70;3.83;;;;;;;16.15;100.00;100662.13;5026212;28;20030;-70
2021/05/22 05:14:50;;;;;;;5.68;3.33;;;;;;;16.19;100.00;100637.03;5012799;28;20037;-71
2021/05/22 05:17:16;;;;;;;5.53;3.83;;;;;;;16.46;100.00;100665.19;5021243;28;20067;-71
2021/05/22 05:19:41;;;;;;;6.80;3.90;;;;;;;16.55;100.00;100660.78;5017113;28;20025;-70
2021/05/22 05:22:07;;;;;;;7.28;3.42;;;;;;;16.60;100.00;100663.78;5026333;28;20025;-71
2021/05/22 05:24:33;;;;;;;6.15;3.95;;;;;;;16.80;100.00;100663.63;5018984;28;20045;-71
2021/05/22 05:26:58;;;;;;;6.85;4.13;;;;;;;16.44;100.00;100626.66;5024048;28;20382;-70
2021/05/22 05:29:23;;;;;;;8.18;4.40;;;;;;;16.41;100.00;100633.09;5011749;28;20474;-71
2021/05/22 05:31:49;;;;;;;5.82;4.43;;;;;;;16.31;100.00;100626.25;5020575;28;20487;-70
2021/05/22 05:34:14;;;;;;;5.72;4.03;;;;;;;16.48;100.00;100634.13;5013629;28;20505;-71
2021/05/22 05:36:40;;;;;;;5.75;4.10;;;;;;;16.74;100.00;100663.28;5020259;28;20029;-70
2021/05/22 05:39:07;;;;;;;7.85;4.30;;;;;;;16.81;100.00;100665.28;5011804;28;20022;-70
2021/05/22 05:41:32;;;;;;;5.18;4.10;;;;;;;16.97;100.00;100638.91;5020296;28;20037;-70
2021/05/22 05:43:58;;;;;;;8.75;5.40;;;;;;;17.21;100.00;100651.41;5016823;28;20087;-71
2021/05/22 05:46:24;;;;;;;5.65;4.25;;;;;;;17.62;100.00;100657.72;5012726;28;20072;-71
2021/05/22 05:48:49;;;;;;;6.03;3.90;;;;;;;17.89;100.00;100638.06;5012585;28;20034;-70
2021/05/22 05:51:15;;;;;;;7.38;4.50;;;;;;;17.96;100.00;100646.19;5013955;28;20026;-70
2021/05/22 05:53:40;;;;;;;6.07;3.45;;;;;;;18.31;100.00;100638.91;5021938;28;20474;-71
2021/05/22 05:56:06;;;;;;;5.38;3.90;;;;;;;18.42;100.00;100673.03;5013808;28;20026;-70
2021/05/22 05:58:32;;;;;;;6.78;4.35;;;;;;;17.77;100.00;100641.19;5021075;28;20435;-69
2021/05/22 06:00:58;;;;;;;7.00;5.05;;;;;;;18.11;100.00;100667.56;5017481;28;20041;-71
2021/05/22 06:03:31;;;;;;;5.80;4.40;;;;;;;18.48;100.00;100651.16;5018804;28;20037;-71
2021/05/22 06:05:57;;;;;;;8.25;5.22;;;;;;;18.41;100.00;100676.72;5014306;28;20034;-70
2021/05/22 06:08:23;;;;;;;7.63;5.00;;;;;;;18.75;100.00;100695.09;5021067;28;20105;-70
2021/05/22 06:10:50;;;;;;;7.18;4.28;;;;;;;18.85;100.00;100665.72;5018396;28;20045;-70
2021/05/22 06:13:30;;;;;;;5.43;4.10;;;;;;;19.34;100.00;100697.47;5017930;28;20022;-71
2021/05/22 06:16:01;;;;;;;6.63;4.68;;;;;;;19.13;100.00;100639.56;5018159;28;20658;-70
2021/05/22 06:18:34;;;;;;;6.35;4.20;;;;;;;19.91;100.00;100705.19;5022357;28;20037;-70
2021/05/22 06:21:01;;;;;;;7.93;4.88;;;;;;;20.23;100.00;100705.94;5025398;28;20115;-70
2021/05/22 06:23:27;;;;;;;5.50;3.88;;;;;;;20.25;100.00;100691.47;5019531;28;20053;-70
2021/05/22 06:25:53;;;;;;;8.45;4.38;;;;;;;20.39;100.00;100699.69;5018408;28;20512;-69
2021/05/22 06:28:19;;;;;;;6.18;3.88;;;;;;;20.50;100.00;100700.09;5023425;28;20565;-69
2021/05/22 06:30:45;;;;;;;5.50;4.40;;;;;;;20.69;100.00;100697.94;5026144;28;20053;-69
2021/05/22 06:33:10;;;;;;;6.47;4.82;;;;;;;20.46;100.00;100680.13;5021358;28;20072;-69
2021/05/22 06:35:36;;;;;;;10.40;4.57;;;;;;;20.73;100.00;100704.56;5022026;28;20117;-69
2021/05/22 06:38:01;;;;;;;5.45;4.50;;;;;;;20.44;100.00;100702.63;5022616;28;20036;-69
2021/05/22 06:40:27;;;;;;;5.40;3.92;;;;;;;20.44;100.00;100678.66;5022525;28;20033;-69
2021/05/22 06:42:52;;;;;;;5.50;4.00;;;;;;;20.33;100.00;100687.91;5023979;28;20030;-69
2021/05/22 06:45:20;;;;;;;6.63;4.90;;;;;;;20.97;100.00;100704.28;5018836;28;20464;-68
2021/05/22 06:47:47;;;;;;;8.68;4.50;;;;;;;20.99;100.00;100696.97;5025269;28;20029;-68
2021/05/22 06:50:13;;;;;;;6.85;4.90;;;;;;;20.55;100.00;100704.03;5027162;28;20018;-68
2021/05/22 06:52:38;;;;;;;7.38;5.03;;;;;;;20.88;100.00;100692.06;5021117;28;20397;-67
2021/05/22 06:55:05;;;;;;;7.35;5.00;;;;;;;21.08;100.00;100686.19;5027780;28;20086;-68
2021/05/22 06:57:30;;;;;;;7.28;4.45;;;;;;;21.20;100.00;100692.72;5020920;28;20484;-68
2021/05/22 06:59:56;;;;;;;5.50;4.28;;;;;;;21.43;100.00;100672.16;5017125;28;20021;-68
2021/05/22 07:02:21;;;;;;;7.78;4.70;;;;;;;21.59;100.00;100702.25;5020663;28;20029;-69
2021/05/22 07:04:47;;;;;;;9.80;4.53;;;;;;;21.51;100.00;100641.06;5011649;28;20030;-68
2021/05/22 07:07:12;;;;;;;6.82;4.45;;;;;;;22.13;100.00;100677.78;5013318;28;20037;-68
2021/05/22 07:09:37;;;;;;;6.70;4.43;;;;;;;22.18;100.00;100688.78;5019332;28;20037;-69
2021/05/22 07:12:04;;;;;;;6.95;4.32;;;;;;;21.75;100.00;100671.88;5012674;28;20072;-68
2021/05/22 07:14:29;;;;;;;20.83;17.90;;;;;;;21.99;100.00;100708.03;5011695;28;20080;-68
2021/05/22 07:16:57;;;;;;;6.20;4.88;;;;;;;21.86;100.00;100668.72;5017930;28;20033;-68
2021/05/22 07:19:23;;;;;;;7.18;5.07;;;;;;;22.13;100.00;100701.81;5014944;28;20029;-68
2021/05/22 07:21:50;;;;;;;6.13;3.92;;;;;;;22.17;100.00;100673.75;5018575;28;20034;-68
2021/05/22 07:24:17;;;;;;;6.45;3.67;;;;;;;22.61;100.00;100702.06;5010166;28;20125;-68
2021/05/22 07:26:43;;;;;;;5.95;4.03;;;;;;;22.58;100.00;100699.78;5019364;28;20101;-68
2021/05/22 07:29:09;;;;;;;7.25;3.70;;;;;;;22.93;100.00;100702.53;5016502;28;20144;-68
2021/05/22 07:31:35;;;;;;;5.50;3.83;;;;;;;22.55;100.00;100676.13;5012549;28;20022;-67
2021/05/22 07:34:02;;;;;;;5.57;4.03;;;;;;;22.00;100.00;100675.00;5014889;28;20048;-68
2021/05/22 07:36:27;;;;;;;5.10;3.40;;;;;;;22.20;100.00;100676.03;5017369;28;20504;-68
2021/05/22 07:38:53;;;;;;;5.88;4.10;;;;;;;22.49;100.00;100684.91;5013011;28;20065;-67
2021/05/22 07:41:18;;;;;;;5.60;4.05;;;;;;;22.45;100.00;100679.16;5018536;28;20416;-67
2021/05/22 07:43:44;;;;;;;5.65;3.92;;;;;;;22.34;100.00;100685.84;5014575;28;20069;-67
2021/05/22 07:46:09;;;;;;;7.28;3.85;;;;;;;22.75;100.00;100649.56;5017330;28;20448;-67
2021/05/22 07:48:35;;;;;;;5.28;3.83;;;;;;;22.84;100.00;100646.53;5016859;28;20473;-67
2021/05/22 07:51:00;;;;;;;6.45;3.60;;;;;;;22.86;100.00;100673.06;5010641;28;20026;-67
2021/05/22 07:53:26;;;;;;;6.05;3.55;;;;;;;22.95;100.00;100660.38;5019881;28;20026;-68
2021/05/22 07:55:51;;;;;;;4.45;2.33;;;;;;;21.90;86.29;100633.47;5030419;28;20021;-68
2021/05/22 07:58:16;;;;;;;4.00;2.80;;;;;;;22.36;90.24;100661.59;5027750;28;20481;-67
2021/05/22 08:00:47;;;;;;;5.80;2.78;;;;;;;22.90;84.86;100644.91;5021754;28;20068;-67
2021/05/22 08:03:12;;;;;;;4.88;2.60;;;;;;;;;;5020809;28;20046;-67
2021/05/22 08:05:38;;;;;;;5.57;2.63;;;;;;;23.02;76.32;100622.00;5022871;28;20038;-68
2021/05/22 08:08:05;;;;;;;2.83;2.05;;;;;;;23.14;70.00;100624.09;5016018;28;20044;-67
2021/05/22 08:10:31;;;;;;;4.03;2.47;;;;;;;23.61;58.02;100655.31;5022338;28;20090;-67
2021/05/22 08:12:57;;;;;;;5.78;2.40;;;;;;;23.65;62.63;100631.66;5017666;28;20090;-67
2021/05/22 08:15:22;;;;;;;4.38;1.88;;;;;;;24.10;54.50;100656.03;5021278;28;20030;-67
2021/05/22 08:17:48;;;;;;;3.97;1.92;;;;;;;24.09;54.96;100630.31;5021151;28;20041;-67
2021/05/22 08:20:14;;;;;;;3.38;2.00;;;;;;;24.14;48.96;100634.03;5016806;28;20026;-67
2021/05/22 08:22:39;;;;;;;2.58;1.60;;;;;;;23.71;50.49;100612.97;5021514;28;20065;-67
2021/05/22 08:25:06;;;;;;;3.90;2.17;;;;;;;23.60;56.46;100647.50;5013983;28;20496;-67
2021/05/22 08:27:32;;;;;;;3.22;2.10;;;;;;;23.53;50.48;100618.06;5019402;28;20025;-67
2021/05/22 08:29:58;;;;;;;2.78;1.70;;;;;;;24.11;51.09;100653.19;5017940;28;20475;-67
2021/05/22 08:32:25;;;;;;;8.32;2.22;;;;;;;24.28;50.40;100633.00;5021186;28;20405;-67
2021/05/22 08:34:50;;;;;;;4.10;2.17;;;;;;;24.35;52.21;100634.84;5012800;28;20037;-67
2021/05/22 08:37:19;;;;;;;3.00;1.75;;;;;;;24.20;47.76;100638.56;5021906;28;20033;-66
2021/05/22 08:39:45;;;;;;;4.78;2.03;;;;;;;23.26;47.62;100615.31;5020077;28;20033;-66
2021/05/22 08:42:19;;;;;;;2.92;2.30;;;;;;;23.75;50.26;100619.56;5015971;28;20481;-66
2021/05/22 08:44:45;;;;;;;4.15;2.63;;;;;;;23.87;51.67;100589.53;5019636;28;20477;-66
2021/05/22 08:47:11;;;;;;;9.10;2.30;;;;;;;24.64;52.08;100647.00;5016853;28;20045;-66
2021/05/22 08:49:43;;;;;;;6.25;2.40;;;;;;;24.39;49.53;100652.13;5019758;28;20031;-66
2021/05/22 08:52:11;;;;;;;3.38;2.08;;;;;;;24.48;46.78;100645.59;5022334;28;20025;-67
2021/05/22 08:54:37;;;;;;;3.72;1.38;;;;;;;24.30;45.34;100642.66;5015319;28;20395;-65
2021/05/22 08:57:03;;;;;;;1.77;1.45;;;;;;;24.40;44.51;100633.22;5027375;28;20037;-66
2021/05/22 08:59:29;;;;;;;2.35;1.35;;;;;;;23.32;45.56;100635.06;5020618;28;20041;-65
2021/05/22 09:01:55;;;;;;;2.65;1.63;;;;;;;23.31;44.94;100639.56;5022956;28;20088;-66
2021/05/22 09:04:20;;;;;;;2.40;1.13;;;;;;;23.14;45.14;100608.06;5022471;28;20029;-65
2021/05/22 09:07:02;;;;;;;1.73;1.10;;;;;;;23.18;45.34;100606.63;5012632;28;20409;-67
2021/05/22 09:09:41;;;;;;;2.10;1.30;;;;;;;23.63;45.12;100613.16;5020189;28;20120;-66
2021/05/22 09:12:06;;;;;;;2.95;1.58;;;;;;;23.40;44.91;100631.41;5019282;28;20108;-67
2021/05/22 09:14:49;;;;;;;5.57;3.25;;;;;;;22.66;43.84;100595.47;5017606;28;20168;-66
2021/05/22 09:17:15;;;;;;;3.00;1.60;;;;;;;23.06;46.15;100596.50;5015496;28;20030;-66
2021/05/22 09:19:42;;;;;;;3.85;1.80;;;;;;;23.44;45.45;100627.28;5021588;28;20462;-67
2021/05/22 09:22:23;;;;;;;2.60;1.67;;;;;;;24.25;45.74;100622.69;5018338;28;20112;-66
2021/05/22 09:24:59;;;;;;;2.78;1.10;;;;;;;24.24;42.54;100628.25;5020399;28;20069;-66
2021/05/22 09:27:32;;;;;;;1.52;1.00;;;;;;;24.32;42.25;100621.88;5021379;28;20037;-66
2021/05/22 09:30:04;;;;;;;1.58;0.75;;;;;;;24.23;42.45;100629.28;5016304;28;20030;-66
2021/05/22 09:32:29;;;;;;;2.22;1.10;;;;;;;24.14;45.93;100617.97;5019303;28;20481;-66
2021/05/22 09:34:55;;;;;;;1.45;0.90;;;;;;;23.77;40.82;100555.97;5010162;28;20033;-66
2021/05/22 09:37:22;;;;;;;3.15;1.17;;;;;;;24.53;45.69;100627.00;5020600;28;20061;-66
2021/05/22 09:39:49;;;;;;;1.48;1.10;;;;;;;24.52;41.29;100587.06;5019458;28;20030;-66
2021/05/22 09:42:15;;;;;;;1.67;1.20;;;;;;;24.92;40.58;100607.34;5013376;28;20065;-66
2021/05/22 09:44:40;;;;;;;1.30;0.95;;;;;;;25.24;42.65;100617.34;5020290;28;20123;-66
2021/05/22 09:47:09;;;;;;;1.25;0.75;;;;;;;25.36;40.48;100607.59;5016241;28;20073;-66
2021/05/22 09:49:37;;;;;;;1.17;0.60;;;;;;;25.43;38.48;100611.06;5018466;28;20108;-66
2021/05/22 09:52:04;;;;;;;1.90;0.80;;;;;;;25.68;39.19;100611.97;5021487;28;20039;-66
2021/05/22 09:54:49;;;;;;;1.17;0.90;;;;;;;25.39;37.80;100601.81;5014371;28;20390;-66
2021/05/22 09:57:18;;;;;;;0.95;0.75;;;;;;;25.09;35.89;100594.28;5014993;28;20473;-66
2021/05/22 10:00:08;;;;;;;1.97;1.17;;;;;;;25.06;39.80;100594.72;5020369;28;20113;-66
2021/05/22 10:03:01;;;;;;;0.93;0.80;;;;;;;25.19;39.77;100597.38;5020799;28;20559;-66
2021/05/22 10:05:34;;;;;;;2.70;0.95;;;;;;;25.33;41.78;100565.94;5016987;28;20041;-67
2021/05/22 10:08:03;;;;;;;3.38;1.00;;;;;;;25.75;39.58;100593.13;5014294;28;20116;-67
2021/05/22 10:10:44;;;;;;;3.53;0.77;;;;;;;25.80;38.99;100562.97;5020067;28;20104;-66
2021/05/22 10:13:10;;;;;;;2.50;1.23;;;;;;;25.43;40.23;100558.22;5015786;28;20071;-65
2021/05/22 10:15:35;;;;;;;2.47;0.95;;;;;;;24.89;38.00;100582.81;5018197;28;20026;-66
2021/05/22 10:18:02;;;;;;;1.42;1.00;;;;;;;25.28;44.01;100575.66;5018030;28;20118;-65
2021/05/22 10:20:28;;;;;;;1.73;1.13;;;;;;;24.78;41.11;100556.69;5014649;28;20535;-65
2021/05/22 10:22:54;;;;;;;1.33;1.05;;;;;;;24.41;39.61;100564.41;5019725;28;20046;-66
2021/05/22 10:25:20;;;;;;;2.95;1.40;;;;;;;24.26;42.18;100572.63;5014113;28;20037;-66
2021/05/22 10:27:47;;;;;;;2.08;1.10;;;;;;;24.01;41.96;100533.13;5019180;28;20041;-66
2021/05/22 10:30:13;;;;;;;1.85;0.90;;;;;;;24.23;39.50;100557.81;5015473;28;20036;-66
2021/05/22 10:32:39;;;;;;;1.65;1.08;;;;;;;24.02;40.92;100529.41;5019558;28;20038;-67
2021/05/22 10:35:13;;;;;;;1.73;1.10;;;;;;;23.89;41.15;100517.88;5014696;28;20026;-67
2021/05/22 10:37:47;;;;;;;1.35;0.85;;;;;;;24.03;40.18;100540.97;5018673;28;20494;-65
2021/05/22 10:40:14;;;;;;;1.13;0.75;;;;;;;24.46;39.26;100519.06;5017700;28;20068;-66
2021/05/22 10:42:47;;;;;;;2.22;1.05;;;;;;;25.07;38.81;100536.53;5012580;28;20056;-66
2021/05/22 10:45:23;;;;;;;3.33;1.08;;;;;;;24.22;41.97;100529.38;5018343;28;20022;-64
2021/05/22 10:47:49;;;;;;;1.45;0.93;;;;;;;24.14;40.90;100518.91;5014839;28;20064;-67
2021/05/22 10:50:32;;;;;;;3.70;1.00;;;;;;;24.25;40.48;100528.97;5021254;28;20485;-66
2021/05/22 10:53:31;;;;;;;1.33;0.70;;;;;;;23.95;42.07;100530.44;5021579;28;20033;-66
2021/05/22 10:56:03;;;;;;;2.50;0.90;;;;;;;24.07;41.56;100527.97;5017137;28;20394;-66
2021/05/22 10:58:29;;;;;;;1.88;1.20;;;;;;;24.32;42.32;100498.69;5020391;28;20678;-66
2021/05/22 11:06:40;;;;;;;1.15;0.80;;;;;;;24.67;39.88;100540.22;5013980;28;20411;-66
2021/05/22 11:09:30;;;;;;;1.67;1.10;;;;;;;24.83;42.03;100532.75;5019759;28;20028;-67
2021/05/22 11:12:01;;;;;;;6.25;3.10;;;;;;;24.90;40.13;100514.75;5009109;28;20060;-66
2021/05/22 11:14:36;;;;;;;5.03;1.30;;;;;;;25.22;41.63;100504.13;5017105;28;20033;-66
2021/05/22 11:17:20;;;;;;;2.22;1.00;;;;;;;25.39;39.40;100497.19;5015424;28;20037;-66
2021/05/22 11:20:02;;;;;;;2.08;0.90;;;;;;;25.23;40.50;100489.66;5015926;28;20041;-65
2021/05/22 11:22:54;;;;;;;1.40;0.80;;;;;;;24.67;38.42;100469.72;5018885;28;20053;-65
2021/05/22 11:25:21;;;;;;;3.40;0.98;;;;;;;24.57;40.01;100483.59;5013228;28;20063;-66
2021/05/22 11:27:48;;;;;;;1.85;0.90;;;;;;;24.68;38.73;100496.31;5020167;28;20531;-66
2021/05/22 11:30:19;;;;;;;1.55;1.00;;;;;;;24.64;39.60;100488.94;5014116;28;20135;-67